Time;durP1;ratioP1;P1;durP2;ratioP2;P2;SDS_P1;SDS_P2;PMS_P1;PMS_P2;Temp;Humidity;BMP_temperature;BMP_pressure;BME280_temperature;BME280_humidity;BME280_pressure;Samples;Min_cycle;Max_cycle;Signal;HPM_P1;HPM_P2
2021/06/10 00:00:29;;;;;;;30.85;26.25;;;;;;;17.78;66.76;99907.06;5014796;28;20041;-61
2021/06/10 00:02:54;;;;;;;33.13;26.55;;;;;;;17.80;66.60;99901.41;5015269;28;20041;-62
2021/06/10 00:05:20;;;;;;;34.53;26.63;;;;;;;17.74;66.95;99907.88;5014748;28;20100;-62
2021/06/10 00:07:46;;;;;;;32.30;26.08;;;;;;;17.72;66.69;99907.31;5015452;28;20022;-62
2021/06/10 00:10:13;;;;;;;31.83;26.35;;;;;;;17.70;67.16;99910.31;5014930;28;20025;-62
2021/06/10 00:12:38;;;;;;;31.52;25.65;;;;;;;17.68;66.98;99904.38;5015363;28;20030;-62
2021/06/10 00:15:06;;;;;;;30.80;26.70;;;;;;;17.64;67.08;99906.78;4997263;28;20411;-62
2021/06/10 00:17:31;;;;;;;35.13;27.65;;;;;;;17.79;66.46;99903.25;5015168;28;20468;-62
2021/06/10 00:19:58;;;;;;;31.30;26.38;;;;;;;17.58;67.68;99904.38;5015111;28;20030;-62
2021/06/10 00:22:24;;;;;;;30.75;25.05;;;;;;;17.63;67.18;99905.19;5014620;28;20037;-61
2021/06/10 00:24:49;;;;;;;31.88;24.58;;;;;;;17.50;67.45;99904.91;5015193;28;20030;-61
2021/06/10 00:27:20;;;;;;;30.77;25.48;;;;;;;17.46;66.83;99897.31;5014543;28;20403;-62
2021/06/10 00:29:46;;;;;;;33.65;24.77;;;;;;;17.59;66.66;99903.28;5014933;28;20044;-62
2021/06/10 00:32:13;;;;;;;31.55;24.75;;;;;;;17.50;66.83;99910.31;5013224;28;20062;-62
2021/06/10 00:34:39;;;;;;;27.83;24.13;;;;;;;17.48;66.84;99907.09;5014803;28;20041;-62
2021/06/10 00:37:04;;;;;;;30.15;25.75;;;;;;;17.38;66.89;99902.47;5014255;28;20041;-62
2021/06/10 00:39:29;;;;;;;32.95;24.55;;;;;;;17.33;67.15;99899.78;5014593;28;20040;-62
2021/06/10 00:41:55;;;;;;;29.60;23.77;;;;;;;17.37;66.84;99900.84;5014168;28;20034;-62
2021/06/10 00:44:20;;;;;;;26.42;22.85;;;;;;;17.35;66.38;99900.31;5014759;28;20033;-61
2021/06/10 00:46:46;;;;;;;26.05;21.40;;;;;;;17.39;65.50;99899.47;5014160;28;20431;-61
2021/06/10 00:49:11;;;;;;;29.02;21.45;;;;;;;17.40;65.08;99911.16;5014580;28;20530;-61
2021/06/10 00:51:40;;;;;;;27.77;21.40;;;;;;;17.36;65.12;99916.28;5012839;28;20451;-61
2021/06/10 00:54:05;;;;;;;22.92;19.75;;;;;;;17.37;64.76;99907.09;5014611;28;20386;-62
2021/06/10 00:56:31;;;;;;;23.48;18.38;;;;;;;17.37;63.86;99907.09;5013991;28;20038;-61
2021/06/10 00:58:56;;;;;;;22.67;18.30;;;;;;;17.35;64.33;99909.25;5014336;28;20551;-62
2021/06/10 01:01:22;;;;;;;23.38;17.35;;;;;;;17.31;63.94;99907.34;5013614;28;20038;-62
2021/06/10 01:03:47;;;;;;;21.13;16.77;;;;;;;17.45;63.42;99895.72;5014145;28;20357;-62
2021/06/10 01:06:39;;;;;;;23.08;17.90;;;;;;;17.38;62.92;99906.00;5013911;28;20084;-62
2021/06/10 01:09:26;;;;;;;21.13;16.30;;;;;;;17.16;63.82;99908.97;5013013;28;20028;-61
2021/06/10 01:11:56;;;;;;;26.70;16.88;;;;;;;17.15;63.35;99906.53;5012466;28;20037;-61
2021/06/10 01:14:21;;;;;;;20.30;16.13;;;;;;;17.10;62.86;99903.78;5014071;28;20026;-62
2021/06/10 01:16:46;;;;;;;21.23;15.90;;;;;;;17.03;63.47;99906.78;5013592;28;20044;-62
2021/06/10 01:19:38;;;;;;;21.33;16.88;;;;;;;16.97;63.31;99908.69;5014108;28;20105;-62
2021/06/10 01:22:04;;;;;;;20.02;16.52;;;;;;;16.84;63.37;99901.06;4992463;28;20133;-61
2021/06/10 01:24:43;;;;;;;24.25;16.25;;;;;;;16.75;63.62;99894.53;5012605;28;20108;-62
2021/06/10 01:27:28;;;;;;;27.20;15.50;;;;;;;16.69;62.85;99901.78;5012262;28;20088;-62
2021/06/10 01:30:27;;;;;;;25.45;15.10;;;;;;;16.71;63.73;99905.06;5013919;28;20025;-61
2021/06/10 01:32:56;;;;;;;23.60;14.02;;;;;;;16.74;61.72;99901.00;5008898;28;20038;-61
2021/06/10 01:35:23;;;;;;;17.50;12.82;;;;;;;16.88;61.38;99904.88;5012316;28;20041;-61
2021/06/10 01:37:48;;;;;;;16.92;12.30;;;;;;;16.82;61.01;99905.91;5012565;28;20033;-61
2021/06/10 01:40:14;;;;;;;17.95;12.27;;;;;;;16.76;61.23;99902.34;5012193;28;20102;-61
2021/06/10 01:42:40;;;;;;;16.75;11.88;;;;;;;16.80;60.30;99899.97;4996074;28;20365;-61
2021/06/10 01:45:09;;;;;;;16.10;11.55;;;;;;;16.73;61.23;99902.91;5013206;28;20168;-62
2021/06/10 01:47:36;;;;;;;14.35;11.05;;;;;;;16.73;60.21;99900.19;5013643;28;20025;-61
2021/06/10 01:50:02;;;;;;;15.05;10.23;;;;;;;16.72;59.24;99905.88;5011533;28;20069;-61
2021/06/10 01:52:27;;;;;;;14.73;9.82;;;;;;;16.69;60.12;99906.41;5013463;28;20460;-62
2021/06/10 01:54:53;;;;;;;14.07;10.00;;;;;;;16.67;59.24;99897.72;5012186;28;20040;-62
2021/06/10 01:57:18;;;;;;;13.10;10.23;;;;;;;16.64;59.11;99903.69;4995633;28;20041;-62
2021/06/10 01:59:44;;;;;;;16.95;10.77;;;;;;;16.71;58.18;99904.25;4995618;28;20049;-62
2021/06/10 02:02:09;;;;;;;14.07;9.95;;;;;;;16.63;58.60;99900.16;4995359;28;20484;-61
2021/06/10 02:04:35;;;;;;;16.42;9.50;;;;;;;16.67;58.64;99903.94;5013206;28;20034;-62
2021/06/10 02:07:00;;;;;;;13.70;9.40;;;;;;;16.52;59.98;99904.72;4995324;28;20042;-61
2021/06/10 02:09:26;;;;;;;19.63;10.30;;;;;;;16.50;60.31;99898.78;5012184;28;20022;-61
2021/06/10 02:11:51;;;;;;;20.63;10.68;;;;;;;16.30;60.99;99904.06;4995407;28;20042;-61
2021/06/10 02:14:18;;;;;;;15.13;10.65;;;;;;;16.45;60.23;99904.16;5012041;28;20361;-61
2021/06/10 02:16:44;;;;;;;17.20;10.60;;;;;;;16.44;59.93;99897.13;5012699;28;20358;-62
2021/06/10 02:19:09;;;;;;;17.30;10.05;;;;;;;16.45;60.64;99896.06;5013350;28;20108;-61
2021/06/10 02:21:35;;;;;;;16.00;9.95;;;;;;;16.39;60.45;99891.69;5011550;28;20072;-61
2021/06/10 02:24:00;;;;;;;17.15;11.25;;;;;;;16.45;60.22;99895.22;5012977;28;20026;-61
2021/06/10 02:26:25;;;;;;;15.85;10.05;;;;;;;16.43;60.02;99891.97;5012593;28;20041;-61
2021/06/10 02:28:51;;;;;;;14.40;9.90;;;;;;;16.40;60.35;99887.91;5013132;28;20034;-61
2021/06/10 02:31:16;;;;;;;14.98;10.52;;;;;;;16.38;60.34;99896.28;5012710;28;20042;-61
2021/06/10 02:33:43;;;;;;;17.95;10.98;;;;;;;16.41;60.33;99897.66;5013245;28;20022;-61
2021/06/10 02:36:09;;;;;;;20.60;11.85;;;;;;;16.36;60.46;99889.50;5012730;28;20034;-61
2021/06/10 02:38:34;;;;;;;16.15;10.95;;;;;;;16.23;60.82;99892.72;5012923;28;20053;-61
2021/06/10 02:41:01;;;;;;;19.05;10.93;;;;;;;16.21;61.61;99892.16;5011306;28;20034;-63
2021/06/10 02:43:29;;;;;;;22.92;11.35;;;;;;;16.09;62.04;99885.06;5011662;28;20144;-61
2021/06/10 02:45:55;;;;;;;17.23;10.85;;;;;;;15.79;63.68;99899.22;5011452;28;20385;-61
2021/06/10 02:48:20;;;;;;;23.08;12.30;;;;;;;15.72;63.01;99885.94;5011904;28;20025;-61
2021/06/10 02:50:46;;;;;;;19.98;11.25;;;;;;;15.84;63.09;99884.91;4978715;28;20034;-61
2021/06/10 02:53:14;;;;;;;17.58;11.48;;;;;;;15.80;62.55;99883.81;5012895;28;20025;-61
2021/06/10 02:55:40;;;;;;;18.52;11.95;;;;;;;15.77;62.73;99884.34;5010943;28;20045;-61
2021/06/10 02:58:05;;;;;;;27.40;11.40;;;;;;;15.70;63.42;99882.69;5012803;28;20022;-61
2021/06/10 03:00:32;;;;;;;18.15;11.45;;;;;;;15.59;63.17;99883.66;4994833;28;20042;-61
2021/06/10 03:02:59;;;;;;;16.70;11.57;;;;;;;15.61;63.54;99891.50;5016526;28;20026;-61
2021/06/10 03:05:25;;;;;;;14.43;10.57;;;;;;;15.53;64.13;99895.50;5015149;28;20041;-62
2021/06/10 03:07:50;;;;;;;15.85;10.80;;;;;;;15.30;66.60;99894.78;4999143;28;20072;-61
2021/06/10 03:10:16;;;;;;;17.27;12.10;;;;;;;15.19;65.22;99887.66;5014907;28;20380;-62
2021/06/10 03:12:41;;;;;;;16.98;11.13;;;;;;;14.98;66.07;99899.34;5015206;28;20432;-61
2021/06/10 03:15:08;;;;;;;14.65;10.60;;;;;;;15.09;65.31;99895.66;5015968;28;20437;-61
2021/06/10 03:17:34;;;;;;;16.80;11.25;;;;;;;15.22;65.21;99883.63;5016604;28;20053;-61
2021/06/10 03:19:59;;;;;;;14.38;10.27;;;;;;;15.21;67.44;99885.50;5015057;28;20369;-61
2021/06/10 03:22:25;;;;;;;17.67;11.20;;;;;;;15.11;67.05;99882.72;5015744;28;20056;-61
2021/06/10 03:24:50;;;;;;;15.48;10.02;;;;;;;14.94;68.02;99882.84;5016086;28;20476;-61
2021/06/10 03:27:15;;;;;;;16.70;10.65;;;;;;;14.83;68.93;99887.31;4998045;28;20041;-62
2021/06/10 03:29:41;;;;;;;13.73;10.38;;;;;;;14.56;69.82;99884.59;5015104;28;20030;-62
2021/06/10 03:32:07;;;;;;;15.77;10.35;;;;;;;14.63;68.63;99881.72;5015617;28;20041;-61
2021/06/10 03:34:33;;;;;;;14.25;10.13;;;;;;;14.77;68.00;99882.13;5014723;28;20026;-61
2021/06/10 03:36:59;;;;;;;15.88;9.80;;;;;;;14.83;68.02;99873.03;5014349;28;20045;-61
2021/06/10 03:39:25;;;;;;;16.52;11.02;;;;;;;15.00;67.00;99875.59;4998452;28;20038;-61
2021/06/10 03:41:51;;;;;;;13.18;10.23;;;;;;;15.17;67.42;99880.88;5014042;28;20511;-61
2021/06/10 03:44:17;;;;;;;18.77;10.32;;;;;;;15.33;66.31;99879.94;5014537;28;20113;-61
2021/06/10 03:46:42;;;;;;;18.27;9.85;;;;;;;15.43;66.25;99881.91;5015444;28;20069;-61
2021/06/10 03:49:10;;;;;;;16.08;10.05;;;;;;;15.36;66.59;99878.63;5015666;28;20027;-61
2021/06/10 03:51:36;;;;;;;16.90;9.35;;;;;;;15.36;65.87;99878.63;5015296;28;20484;-61
2021/06/10 03:54:01;;;;;;;15.02;10.10;;;;;;;15.68;64.89;99879.38;4998039;28;20037;-62
2021/06/10 03:56:27;;;;;;;14.60;8.75;;;;;;;15.87;64.04;99885.19;5014004;28;20030;-61
2021/06/10 03:58:52;;;;;;;16.70;9.35;;;;;;;16.07;64.15;99884.50;5015467;28;20038;-61
2021/06/10 04:01:18;;;;;;;15.27;9.48;;;;;;;16.27;63.07;99882.97;5013770;28;20034;-62
2021/06/10 04:03:43;;;;;;;13.93;8.90;;;;;;;15.74;64.22;99880.25;5015467;28;20053;-62
2021/06/10 04:06:11;;;;;;;17.42;9.00;;;;;;;16.16;63.90;99890.25;5014975;28;20041;-61
2021/06/10 04:08:36;;;;;;;12.82;8.43;;;;;;;16.69;60.96;99879.34;5015337;28;20030;-61
2021/06/10 04:11:02;;;;;;;13.80;8.48;;;;;;;16.88;60.87;99883.22;5014939;28;20038;-61
2021/06/10 04:13:27;;;;;;;13.85;8.50;;;;;;;17.41;59.50;99891.91;5014864;28;20152;-62
2021/06/10 04:15:53;;;;;;;18.35;9.93;;;;;;;17.35;60.19;99884.88;5014779;28;20030;-62
2021/06/10 04:18:19;;;;;;;15.77;9.07;;;;;;;17.21;60.72;99889.19;5015171;28;20030;-63
2021/06/10 04:20:48;;;;;;;15.73;8.98;;;;;;;17.30;60.82;99895.72;5013317;28;20042;-62
2021/06/10 04:23:13;;;;;;;17.93;9.17;;;;;;;16.87;60.65;99892.38;5015036;28;20055;-61
2021/06/10 04:25:39;;;;;;;12.45;8.18;;;;;;;16.85;59.91;99894.56;5014621;28;20769;-62
2021/06/10 04:28:04;;;;;;;16.42;8.70;;;;;;;18.54;56.17;99891.66;5015247;28;20030;-61
2021/06/10 04:30:30;;;;;;;17.20;8.80;;;;;;;18.33;57.01;99891.75;5014504;28;20341;-61
2021/06/10 04:32:55;;;;;;;11.75;8.85;;;;;;;18.19;56.70;99895.31;5013704;28;20089;-62
2021/06/10 04:35:21;;;;;;;12.25;9.20;;;;;;;18.74;55.76;99902.41;5014404;28;20065;-61
2021/06/10 04:37:46;;;;;;;15.60;9.18;;;;;;;18.05;58.20;99900.53;5014748;28;20026;-62
2021/06/10 04:40:12;;;;;;;15.20;9.10;;;;;;;19.06;54.72;99903.88;5014276;28;20022;-62
2021/06/10 04:42:38;;;;;;;13.75;7.97;;;;;;;18.79;54.09;99898.06;5013354;28;20029;-62
2021/06/10 04:45:03;;;;;;;12.05;8.35;;;;;;;20.10;50.43;99899.19;5012786;28;20022;-62
2021/06/10 04:47:29;;;;;;;11.98;8.45;;;;;;;21.41;49.05;99903.13;5014695;28;20030;-62
2021/06/10 04:49:54;;;;;;;15.95;9.07;;;;;;;21.14;49.16;99900.28;5014513;28;20030;-61
2021/06/10 04:52:20;;;;;;;13.73;8.35;;;;;;;21.39;47.94;99905.38;5014150;28;20042;-62
2021/06/10 04:54:45;;;;;;;12.60;8.27;;;;;;;21.45;48.55;99900.63;5014433;28;20026;-62
2021/06/10 04:57:11;;;;;;;12.48;8.48;;;;;;;21.43;48.35;99897.38;5014300;28;20037;-62
2021/06/10 04:59:36;;;;;;;14.35;8.15;;;;;;;21.64;48.06;99900.56;5014552;28;20049;-62
2021/06/10 05:02:04;;;;;;;16.15;8.48;;;;;;;22.05;46.86;99908.03;5013551;28;20050;-62
2021/06/10 05:04:30;;;;;;;10.85;7.90;;;;;;;22.82;45.20;99912.75;5014286;28;20121;-62
2021/06/10 05:06:55;;;;;;;11.02;7.55;;;;;;;22.70;45.64;99907.00;5013854;28;20038;-63
2021/06/10 05:09:21;;;;;;;14.75;8.02;;;;;;;23.51;43.27;99908.97;5014138;28;20021;-63
2021/06/10 05:11:46;;;;;;;13.30;8.13;;;;;;;23.63;42.89;99918.22;5013762;28;20038;-62
2021/06/10 05:14:12;;;;;;;10.45;7.35;;;;;;;23.90;42.31;99913.72;5013976;28;20034;-63
2021/06/10 05:16:37;;;;;;;12.93;7.78;;;;;;;24.16;41.16;99910.28;5013668;28;20041;-63
2021/06/10 05:19:02;;;;;;;13.80;7.85;;;;;;;24.42;41.42;99905.69;5013004;28;20059;-63
2021/06/10 05:21:28;;;;;;;12.45;7.97;;;;;;;24.39;41.33;99900.03;5013656;28;20088;-60
2021/06/10 05:23:54;;;;;;;12.57;7.40;;;;;;;24.41;41.21;99897.78;5011792;28;20449;-64
2021/06/10 05:26:19;;;;;;;10.60;8.88;;;;;;;24.61;40.39;99896.41;5013599;28;20172;-60
2021/06/10 05:28:44;;;;;;;13.38;9.27;;;;;;;24.16;41.32;99896.59;5014038;28;20026;-60
2021/06/10 05:31:10;;;;;;;14.75;8.88;;;;;;;25.30;38.66;99895.66;5013540;28;20439;-60
2021/06/10 05:33:36;;;;;;;13.98;9.23;;;;;;;24.45;38.55;99893.31;5013768;28;20386;-62
2021/06/10 05:36:02;;;;;;;14.18;9.02;;;;;;;24.05;40.13;99894.13;5013351;28;20042;-64
2021/06/10 05:38:27;;;;;;;14.85;10.38;;;;;;;24.60;40.16;99905.78;5013702;28;20037;-63
2021/06/10 05:40:53;;;;;;;15.30;10.13;;;;;;;25.52;38.07;99903.69;5013201;28;20026;-61
2021/06/10 05:43:19;;;;;;;14.52;10.63;;;;;;;26.10;37.34;99908.88;5013535;28;20030;-62
2021/06/10 05:45:44;;;;;;;13.07;10.45;;;;;;;25.83;38.09;99908.94;5012667;28;20033;-62
2021/06/10 05:48:11;;;;;;;13.15;9.77;;;;;;;25.50;38.44;99905.94;5013662;28;20064;-62
2021/06/10 05:50:37;;;;;;;16.40;10.52;;;;;;;25.70;38.04;99903.66;5013094;28;20045;-62
2021/06/10 05:53:03;;;;;;;16.17;11.75;;;;;;;25.37;38.79;99906.94;5013479;28;20037;-62
2021/06/10 05:55:28;;;;;;;14.75;10.82;;;;;;;25.48;38.97;99907.41;5013041;28;20037;-62
2021/06/10 05:57:53;;;;;;;12.27;10.30;;;;;;;27.58;35.42;99914.13;5012237;28;20033;-62
2021/06/10 06:00:20;;;;;;;12.88;11.18;;;;;;;27.59;36.40;99918.50;5011688;28;20234;-62
2021/06/10 06:02:45;;;;;;;15.77;11.43;;;;;;;27.49;36.37;99905.19;5012190;28;20033;-62
2021/06/10 06:05:11;;;;;;;18.33;11.80;;;;;;;27.60;36.44;99913.81;5011872;28;20026;-62
2021/06/10 06:07:36;;;;;;;13.00;10.85;;;;;;;27.65;35.66;99911.63;5013285;28;20030;-62
2021/06/10 06:10:03;;;;;;;13.70;10.63;;;;;;;27.64;34.15;99923.00;5012965;28;20080;-62
2021/06/10 06:12:31;;;;;;;15.50;10.90;;;;;;;27.15;34.88;99912.56;5013222;28;20046;-62
2021/06/10 06:14:56;;;;;;;13.18;10.43;;;;;;;27.22;34.68;99915.63;5013261;28;20033;-62
2021/06/10 06:17:22;;;;;;;12.65;10.35;;;;;;;26.68;36.10;99912.78;5012746;28;20072;-62
2021/06/10 06:19:47;;;;;;;13.02;10.15;;;;;;;26.93;35.32;99921.19;5013285;28;20037;-62
2021/06/10 06:22:13;;;;;;;17.17;10.98;;;;;;;27.60;34.58;99922.06;5012700;28;20034;-62
2021/06/10 06:24:38;;;;;;;17.02;10.82;;;;;;;28.37;34.08;99922.31;5013372;28;20034;-62
2021/06/10 06:27:04;;;;;;;18.67;11.25;;;;;;;27.94;34.44;99918.97;5012564;28;20444;-62
2021/06/10 06:29:29;;;;;;;12.00;10.70;;;;;;;28.87;33.03;99920.31;5012028;28;20112;-62
2021/06/10 06:31:55;;;;;;;16.00;10.43;;;;;;;30.72;29.82;99921.63;5011450;28;20034;-62
2021/06/10 06:34:20;;;;;;;16.55;10.57;;;;;;;30.67;30.08;99929.44;5013098;28;20025;-63
2021/06/10 06:36:46;;;;;;;11.82;10.25;;;;;;;31.22;29.32;99929.44;5016145;28;20113;-62
2021/06/10 06:39:13;;;;;;;18.73;11.45;;;;;;;30.68;29.71;99926.31;5017267;28;20385;-62
2021/06/10 06:41:39;;;;;;;18.65;11.30;;;;;;;30.66;30.52;99931.41;5016620;28;20034;-63
2021/06/10 06:44:04;;;;;;;16.95;11.90;;;;;;;31.45;29.27;99923.97;5016882;28;20036;-63
2021/06/10 06:46:30;;;;;;;15.35;11.13;;;;;;;30.07;31.19;99926.81;5016593;28;20061;-63
2021/06/10 06:48:55;;;;;;;14.20;10.60;;;;;;;30.28;31.16;99927.38;5016911;28;20026;-63
2021/06/10 06:51:21;;;;;;;14.65;10.93;;;;;;;31.87;28.15;99929.50;5016452;28;20030;-62
2021/06/10 06:53:46;;;;;;;14.52;11.95;;;;;;;30.22;30.51;99933.47;5016963;28;20068;-62
2021/06/10 06:56:12;;;;;;;14.57;12.10;;;;;;;31.01;29.44;99933.38;5015984;28;20488;-63
2021/06/10 06:58:38;;;;;;;12.25;10.52;;;;;;;30.22;31.92;99934.28;5016557;28;20062;-63
2021/06/10 07:01:04;;;;;;;14.23;10.15;;;;;;;31.27;30.58;99940.22;5016408;28;20041;-63
2021/06/10 07:03:29;;;;;;;15.50;11.50;;;;;;;31.54;29.15;99939.19;5016575;28;20036;-63
2021/06/10 07:05:55;;;;;;;16.77;12.57;;;;;;;29.18;32.91;99933.47;5016127;28;20029;-63
2021/06/10 07:08:20;;;;;;;14.00;10.63;;;;;;;30.43;31.42;99938.75;5016754;28;20033;-63
2021/06/10 07:10:53;;;;;;;17.88;11.30;;;;;;;30.77;30.50;99939.13;5015879;28;20101;-63
2021/06/10 07:13:18;;;;;;;15.13;12.80;;;;;;;30.55;30.41;99933.09;5016634;28;20061;-63
2021/06/10 07:15:44;;;;;;;24.40;13.27;;;;;;;30.56;29.87;99943.03;5016078;28;20029;-62
2021/06/10 07:18:09;;;;;;;22.42;14.60;;;;;;;29.96;30.50;99939.56;5016320;28;20033;-61
2021/06/10 07:20:35;;;;;;;22.67;14.43;;;;;;;30.00;30.92;99934.91;5015798;28;20038;-61
2021/06/10 07:23:01;;;;;;;27.05;15.90;;;;;;;28.34;32.20;99931.28;5016134;28;20022;-62
2021/06/10 07:25:26;;;;;;;23.75;14.88;;;;;;;29.58;31.32;99930.66;5015929;28;20092;-62
2021/06/10 07:27:51;;;;;;;27.55;15.38;;;;;;;30.65;29.08;99943.63;5016328;28;20047;-62
2021/06/10 07:30:18;;;;;;;34.45;16.50;;;;;;;31.94;27.08;99943.50;5015635;28;20457;-62
2021/06/10 07:32:44;;;;;;;32.10;16.80;;;;;;;31.81;26.49;99950.38;5016052;28;20478;-61
2021/06/10 07:35:09;;;;;;;40.58;18.08;;;;;;;31.01;28.24;99949.97;5015593;28;20018;-62
2021/06/10 07:37:35;;;;;;;48.03;17.15;;;;;;;32.11;26.58;99950.53;5014935;28;20384;-61
2021/06/10 07:40:00;;;;;;;40.78;16.42;;;;;;;32.13;27.08;99948.19;5015432;28;20067;-62
2021/06/10 07:42:27;;;;;;;42.70;16.35;;;;;;;32.01;27.40;99956.69;5014614;28;20018;-62
2021/06/10 07:44:52;;;;;;;48.22;16.17;;;;;;;31.89;27.81;99954.88;5015908;28;20030;-62
2021/06/10 07:47:17;;;;;;;46.85;15.40;;;;;;;32.62;26.62;99963.25;5013218;28;20034;-61
2021/06/10 07:49:43;;;;;;;52.78;15.23;;;;;;;31.64;27.94;99948.09;5015627;28;20388;-61
2021/06/10 07:52:08;;;;;;;51.72;17.80;;;;;;;30.94;29.00;99955.34;5015318;28;20038;-61
2021/06/10 07:54:34;;;;;;;52.95;16.80;;;;;;;31.41;28.36;99957.16;5014262;28;20033;-61
2021/06/10 07:56:59;;;;;;;57.22;15.95;;;;;;;31.84;28.20;99960.72;5015388;28;20061;-61
2021/06/10 07:59:26;;;;;;;42.92;16.25;;;;;;;30.99;29.72;99959.81;5015558;28;20400;-61
2021/06/10 08:01:54;;;;;;;37.97;16.80;;;;;;;31.05;29.37;99961.94;5015062;28;20400;-62
2021/06/10 08:04:20;;;;;;;45.97;16.30;;;;;;;31.54;28.68;99958.59;5015892;28;20412;-61
2021/06/10 08:06:45;;;;;;;53.92;15.57;;;;;;;31.66;28.44;99963.19;5015105;28;20057;-61
2021/06/10 08:09:11;;;;;;;46.42;16.27;;;;;;;31.25;28.90;99962.75;5015453;28;20022;-61
2021/06/10 08:11:37;;;;;;;50.55;15.77;;;;;;;33.05;26.33;99963.88;5014986;28;20480;-61
2021/06/10 08:14:02;;;;;;;40.35;17.40;;;;;;;32.49;27.15;99970.19;5015209;28;20076;-61
2021/06/10 08:16:28;;;;;;;47.22;17.30;;;;;;;32.25;27.55;99966.59;5014905;28;20034;-62
2021/06/10 08:18:53;;;;;;;43.42;17.25;;;;;;;31.84;28.25;99969.03;5014990;28;20026;-61
2021/06/10 08:21:19;;;;;;;42.22;16.55;;;;;;;31.92;28.22;99964.44;5014783;28;20041;-61
2021/06/10 08:23:44;;;;;;;44.50;17.02;;;;;;;31.98;28.11;99958.25;5015006;28;20045;-61
2021/06/10 08:26:10;;;;;;;59.17;15.38;;;;;;;32.97;26.51;99964.94;5014534;28;20037;-61
2021/06/10 08:28:35;;;;;;;50.85;15.55;;;;;;;31.65;29.00;99966.31;5015338;28;20022;-61
2021/06/10 08:31:01;;;;;;;55.58;15.63;;;;;;;32.59;27.52;99953.69;5014500;28;20047;-61
2021/06/10 08:33:26;;;;;;;59.15;19.67;;;;;;;31.56;28.33;99952.69;5014854;28;20030;-62
2021/06/10 08:35:52;;;;;;;60.08;19.50;;;;;;;31.62;29.00;99953.97;5014723;28;20038;-62
2021/06/10 08:38:18;;;;;;;39.45;19.55;;;;;;;31.29;28.67;99952.53;5014915;28;20026;-62
2021/06/10 08:40:43;;;;;;;55.63;16.95;;;;;;;31.55;28.81;99957.44;5013228;28;20034;-62
2021/06/10 08:43:09;;;;;;;54.20;17.42;;;;;;;32.09;28.08;99954.84;5014697;28;20064;-60
2021/06/10 08:45:37;;;;;;;45.00;17.25;;;;;;;31.91;28.30;99963.63;5014001;28;20416;-61
2021/06/10 08:48:02;;;;;;;47.53;17.73;;;;;;;32.20;27.05;99959.41;5014597;28;20037;-61
2021/06/10 08:50:28;;;;;;;45.03;16.40;;;;;;;31.99;27.21;99951.53;5014270;28;20041;-61
2021/06/10 08:52:54;;;;;;;45.83;14.95;;;;;;;32.32;26.43;99952.84;5014648;28;20034;-61
2021/06/10 08:55:19;;;;;;;35.28;14.40;;;;;;;31.94;26.70;99957.38;5014198;28;20380;-61
2021/06/10 08:57:45;;;;;;;43.08;15.18;;;;;;;31.55;27.14;99957.44;5013930;28;20025;-61
2021/06/10 09:00:11;;;;;;;34.72;14.00;;;;;;;32.16;26.62;99953.00;5013835;28;20073;-61
2021/06/10 09:02:37;;;;;;;37.92;14.93;;;;;;;30.99;28.10;99946.75;5014441;28;20034;-61
2021/06/10 09:05:04;;;;;;;34.42;13.88;;;;;;;31.54;27.67;99955.81;5014038;28;20033;-61
2021/06/10 09:07:52;;;;;;;31.75;14.60;;;;;;;29.49;29.62;99949.34;5014575;28;20519;-62
2021/06/10 09:10:20;;;;;;;33.67;14.10;;;;;;;29.83;29.36;99953.44;5010602;28;20045;-62
2021/06/10 09:12:50;;;;;;;34.13;14.00;;;;;;;29.85;31.43;99953.91;5012673;28;20156;-62
2021/06/10 09:15:18;;;;;;;;;;;;;;;30.15;30.43;99952.66;5013867;28;20052;-61
2021/06/10 09:17:44;;;;;;;29.33;14.82;;;;;;;31.38;27.29;99960.63;5014081;28;20415;-62
2021/06/10 09:20:18;;;;;;;29.98;15.48;;;;;;;31.10;28.02;99960.81;5012739;28;20121;-62
2021/06/10 09:22:44;;;;;;;35.00;16.10;;;;;;;31.03;28.24;99955.13;5014030;28;20036;-63
2021/06/10 09:25:11;;;;;;;27.50;15.30;;;;;;;30.39;29.47;99958.03;5012353;28;20500;-62
2021/06/10 09:27:53;;;;;;;36.45;17.13;;;;;;;29.54;31.05;99956.56;5014074;28;20083;-62
2021/06/10 09:30:38;;;;;;;33.92;16.80;;;;;;;30.16;30.18;99948.75;5013637;28;20069;-61
2021/06/10 09:33:19;;;;;;;38.30;21.13;;;;;;;29.02;31.70;99952.69;5013858;28;20038;-61
2021/06/10 09:35:45;;;;;;;26.05;19.13;;;;;;;29.28;32.73;99952.31;5013424;28;20044;-61
2021/06/10 09:38:19;;;;;;;42.47;21.10;;;;;;;30.60;29.09;99946.66;5013728;28;20076;-61
2021/06/10 09:40:44;;;;;;;28.90;17.75;;;;;;;31.24;29.14;99958.34;5013607;28;20038;-61
2021/06/10 09:43:10;;;;;;;35.92;19.88;;;;;;;31.08;28.94;99954.88;5013701;28;20044;-61
2021/06/10 09:45:36;;;;;;;30.58;16.83;;;;;;;30.99;29.34;99952.31;5013496;28;20065;-63
2021/06/10 09:48:04;;;;;;;32.97;19.88;;;;;;;28.82;31.99;99949.75;5012513;28;20103;-61
2021/06/10 09:50:31;;;;;;;39.15;19.45;;;;;;;30.61;29.67;99958.53;5013097;28;20049;-61
2021/06/10 09:53:08;;;;;;;30.88;18.20;;;;;;;30.70;29.27;99956.38;5013707;28;20029;-62
2021/06/10 09:55:34;;;;;;;41.97;17.67;;;;;;;31.36;28.29;99949.09;5013197;28;20089;-61
2021/06/10 09:58:23;;;;;;;41.65;20.92;;;;;;;30.02;29.53;99949.19;5013518;28;20415;-61
2021/06/10 10:00:52;;;;;;;41.65;19.05;;;;;;;29.88;30.21;99947.66;5012876;28;20042;-61
2021/06/10 10:03:24;;;;;;;30.60;14.48;;;;;;;31.68;27.48;99954.50;5013176;28;20034;-61
2021/06/10 10:05:50;;;;;;;28.67;15.48;;;;;;;30.97;27.66;99945.53;5013231;28;20125;-61
2021/06/10 10:08:16;;;;;;;30.65;17.60;;;;;;;30.81;28.19;99945.56;5012384;28;20029;-61
2021/06/10 10:10:42;;;;;;;37.20;20.13;;;;;;;28.80;31.04;99951.25;4995022;28;20026;-61
2021/06/10 10:13:10;;;;;;;41.95;17.02;;;;;;;27.42;33.91;99949.75;5012068;28;20083;-62
2021/06/10 10:15:36;;;;;;;34.70;14.13;;;;;;;29.27;32.03;99947.13;5013015;28;20365;-62
2021/06/10 10:18:01;;;;;;;29.95;15.68;;;;;;;29.44;31.54;99942.09;4979799;28;20022;-62
2021/06/10 10:20:27;;;;;;;28.85;16.13;;;;;;;29.22;31.71;99942.66;5011828;28;20030;-62
2021/06/10 10:22:52;;;;;;;28.35;15.20;;;;;;;30.16;29.63;99949.53;5012283;28;20029;-62
2021/06/10 10:25:19;;;;;;;26.85;15.35;;;;;;;30.14;29.82;99940.81;5011701;28;20538;-62
2021/06/10 10:27:44;;;;;;;30.30;15.88;;;;;;;30.18;29.16;99947.22;5013271;28;20029;-61
2021/06/10 10:30:10;;;;;;;29.92;17.38;;;;;;;29.83;28.21;99939.63;4995319;28;20033;-63
2021/06/10 10:32:40;;;;;;;27.20;19.25;;;;;;;26.79;32.94;99933.25;4995614;28;20396;-62
2021/06/10 10:35:24;;;;;;;;;;;;;;;28.49;31.20;99936.13;5012285;28;20026;-61
2021/06/10 10:37:49;;;;;;;25.65;15.40;;;;;;;30.11;29.35;99936.00;5013172;28;20397;-63
2021/06/10 10:40:22;;;;;;;27.70;15.40;;;;;;;30.61;29.23;99937.22;5011491;28;20030;-63
2021/06/10 10:42:48;;;;;;;25.50;16.30;;;;;;;31.11;27.73;99935.56;5012947;28;20022;-63
2021/06/10 10:45:19;;;;;;;22.10;15.50;;;;;;;31.38;28.11;99930.16;5012727;28;20029;-61
2021/06/10 10:48:02;;;;;;;29.60;17.50;;;;;;;30.87;28.28;99927.53;5013474;28;20052;-63
2021/06/10 10:50:33;;;;;;;31.58;19.92;;;;;;;29.22;29.76;99923.34;5011818;28;20038;-63
2021/06/10 10:52:58;;;;;;;31.60;18.70;;;;;;;29.23;30.89;99925.75;5013007;28;20052;-62
2021/06/10 10:55:30;;;;;;;29.98;15.95;;;;;;;30.50;29.09;99919.56;5012692;28;20042;-62
2021/06/10 10:58:10;;;;;;;23.42;15.35;;;;;;;29.60;31.20;99922.81;5012640;28;20034;-62
2021/06/10 11:00:45;;;;;;;26.25;16.15;;;;;;;28.54;32.43;99927.63;5011434;28;20046;-62
2021/06/10 11:03:32;;;;;;;26.63;15.57;;;;;;;28.23;32.78;99921.84;5012696;28;20535;-62
2021/06/10 11:05:58;;;;;;;34.22;19.00;;;;;;;27.27;34.06;99920.13;5012283;28;20041;-62
2021/06/10 11:08:44;;;;;;;30.58;20.40;;;;;;;26.39;35.56;99917.13;5012931;28;20026;-62
2021/06/10 11:11:09;;;;;;;33.72;19.08;;;;;;;28.59;31.20;99913.59;5011227;28;20349;-62
2021/06/10 11:13:45;;;;;;;28.00;17.75;;;;;;;28.96;30.47;99913.50;5012690;28;20029;-62
2021/06/10 11:16:11;;;;;;;30.60;16.40;;;;;;;29.03;30.08;99916.47;5012475;28;20042;-62
2021/06/10 11:18:43;;;;;;;24.20;14.35;;;;;;;28.49;31.07;99913.25;5012786;28;20030;-62